createdAt,value
2023-02-08T00:00:36.724Z,4126.9
2023-02-08T00:06:11.762Z,4127.9
2023-02-08T00:11:46.912Z,4127.4
2023-02-08T00:17:22.248Z,4126.4
2023-02-08T00:23:02.142Z,4123.5
2023-02-08T00:28:42.824Z,4123.2
2023-02-08T00:34:18.830Z,4118.2
2023-02-08T00:39:53.863Z,4127.2
2023-02-08T00:45:29.245Z,4122.2
2023-02-08T00:51:05.774Z,4121.2
2023-02-08T00:56:40.372Z,4120.7
2023-02-08T01:02:17.440Z,4121
2023-02-08T01:07:52.699Z,4119.8
2023-02-08T01:13:28.741Z,4118.5
2023-02-08T01:19:04.601Z,4117.7
2023-02-08T01:24:39.824Z,4118.3
2023-02-08T01:30:14.613Z,4116.1
2023-02-08T01:35:49.457Z,4116.1
2023-02-08T01:41:25.007Z,4116.8
2023-02-08T01:47:21.991Z,4110.3
2023-02-08T01:52:55.891Z,4114.8
2023-02-08T01:58:30.685Z,4114.1
2023-02-08T02:04:20.492Z,4112.3
2023-02-08T02:10:09.470Z,4109.3
2023-02-08T02:15:44.682Z,4110.8
2023-02-08T02:21:23.618Z,4114.5
2023-02-08T02:26:58.564Z,4110.8
2023-02-08T02:32:33.429Z,4110.3
2023-02-08T02:38:08.396Z,4108.8
2023-02-08T02:43:43.775Z,4108.4
2023-02-08T02:49:40.800Z,4103.2
2023-02-08T02:55:13.410Z,4106.4
2023-02-08T03:00:51.045Z,4108.1
2023-02-08T03:06:26.408Z,4104.1
2023-02-08T03:12:01.923Z,4105.8
2023-02-08T03:17:37.234Z,4105.9
2023-02-08T03:23:34.682Z,4107.4
2023-02-08T03:29:09.785Z,4103.1
2023-02-08T03:34:44.825Z,4100.1
2023-02-08T03:40:19.903Z,4100.6
2023-02-08T03:45:55.943Z,4100.7
2023-02-08T03:51:31.121Z,4101.4
2023-02-08T03:57:06.217Z,4100.9
2023-02-08T04:03:02.549Z,4099.7
2023-02-08T04:08:37.778Z,4098.6
2023-02-08T04:14:12.555Z,4098.4
2023-02-08T04:19:48.956Z,4100.4
2023-02-08T04:25:25.443Z,4099.4
2023-02-08T04:31:02.472Z,4098.4
2023-02-08T04:36:38.010Z,4096.4
2023-02-08T04:42:13.158Z,4096.4
2023-02-08T04:48:13.363Z,4091.2
2023-02-08T04:53:46.294Z,4094.2
2023-02-08T04:59:21.076Z,4095
2023-02-08T05:04:56.715Z,4092.4
2023-02-08T05:10:31.590Z,4096.9
2023-02-08T05:16:07.514Z,4095.5
2023-02-08T05:21:42.736Z,4095.4
2023-02-08T05:27:17.557Z,4095.7
2023-02-08T05:32:52.848Z,4092.7
2023-02-08T05:38:28.442Z,4092.5
2023-02-08T05:44:04.598Z,4095
2023-02-08T05:50:02.405Z,4088.3
2023-02-08T05:55:36.501Z,4091
2023-02-08T06:01:11.422Z,4092.5
2023-02-08T06:06:49.176Z,4093.7
2023-02-08T06:12:24.116Z,4090.4
2023-02-08T06:18:00.466Z,4089.5
2023-02-08T06:23:35.780Z,4091.9
2023-02-08T06:29:11.446Z,4091.4
2023-02-08T06:34:46.696Z,4087.5
2023-02-08T06:40:23.321Z,4089.3
2023-02-08T06:45:59.346Z,4085.3
2023-02-08T06:51:34.444Z,4085.5
2023-02-08T06:57:09.591Z,4086
2023-02-08T07:02:53.831Z,4087.5
2023-02-08T07:08:30.368Z,4082
2023-02-08T07:14:14.118Z,4079.6
2023-02-08T07:19:49.487Z,4075.1
2023-02-08T07:25:33.346Z,4075.3
2023-02-08T07:31:18.023Z,4076.8
2023-02-08T07:36:53.844Z,4092.9
2023-02-08T07:42:38.629Z,4088.5
2023-02-08T07:48:36.035Z,4120.5
2023-02-08T07:54:09.994Z,4142.3
2023-02-08T07:59:55.036Z,4135.6
2023-02-08T08:05:31.385Z,4123.2
2023-02-08T08:11:08.696Z,4131.7
2023-02-08T08:17:01.046Z,4147.3
2023-02-08T08:22:42.675Z,4169.4
2023-02-08T08:28:19.886Z,4198.7
2023-02-08T08:33:58.036Z,4130.7
2023-02-08T08:39:34.368Z,4122.8
2023-02-08T08:45:11.350Z,4114.5
2023-02-08T08:50:55.134Z,4128.2
2023-02-08T08:56:39.108Z,4140.8
2023-02-08T09:02:14.892Z,4140.9
2023-02-08T09:07:53.124Z,4135.1
2023-02-08T09:13:30.817Z,4156.8
2023-02-08T09:19:08.673Z,4167.4
2023-02-08T09:24:44.172Z,4182.1
2023-02-08T09:30:19.892Z,4179
2023-02-08T09:35:55.570Z,4182.3
2023-02-08T09:41:31.018Z,4169.6
2023-02-08T09:47:33.337Z,4184.8
2023-02-08T09:53:09.729Z,4200.2
2023-02-08T09:58:44.662Z,4205.3
2023-02-08T10:04:41.542Z,4172.3
2023-02-08T10:10:17.492Z,4182.8
2023-02-08T10:15:52.803Z,4181.3
2023-02-08T10:21:28.239Z,4200.2
2023-02-08T10:27:11.692Z,4173.8
2023-02-08T10:32:47.263Z,4195.2
2023-02-08T10:38:44.415Z,4201.7
2023-02-08T10:44:27.238Z,4201.4
2023-02-08T10:50:08.975Z,4182.6
2023-02-08T10:55:48.914Z,4180.5
2023-02-08T11:01:25.502Z,4190.7
2023-02-08T11:07:00.707Z,4195
2023-02-08T11:12:36.129Z,4183.1
2023-02-08T11:18:11.594Z,4211
2023-02-08T11:23:46.367Z,4188.3
2023-02-08T11:29:22.517Z,4202.4
2023-02-08T11:34:57.970Z,4204.4
2023-02-08T11:40:59.291Z,4190.5
2023-02-08T11:46:37.780Z,4192
2023-02-08T11:52:24.794Z,4212.3
2023-02-08T11:58:00.686Z,4193.7
2023-02-08T12:03:43.423Z,4196
2023-02-08T12:09:19.051Z,4214
2023-02-08T12:14:54.444Z,4213.3
2023-02-08T12:20:30.184Z,4204.9
2023-02-08T12:26:05.855Z,4203.4
2023-02-08T12:31:42.353Z,4210.3
2023-02-08T12:37:18.810Z,4194.7
2023-02-08T12:42:54.184Z,4215.3
2023-02-08T12:48:50.871Z,4198.1
2023-02-08T12:54:23.833Z,4193.4
2023-02-08T12:59:59.149Z,4209.6
2023-02-08T13:05:41.793Z,4208.8
2023-02-08T13:11:24.778Z,4203.9
2023-02-08T13:17:01.918Z,4205.8
2023-02-08T13:22:40.326Z,4199.9
2023-02-08T13:28:35.458Z,4199.1
2023-02-08T13:34:12.179Z,4205.8
2023-02-08T13:39:53.134Z,4221.7
2023-02-08T13:45:35.090Z,4208.3
2023-02-08T13:52:53.702Z,4196.2
2023-02-08T13:58:29.999Z,4210.1
2023-02-08T14:04:06.066Z,4206.9
2023-02-08T14:09:41.835Z,4216.3
2023-02-08T14:15:19.557Z,4207.3
2023-02-08T14:20:58.381Z,4223.8
2023-02-08T14:26:33.993Z,4217.1
2023-02-08T14:32:12.775Z,4208.8
2023-02-08T14:38:03.872Z,4214.1
2023-02-08T14:43:50.986Z,4224.2
2023-02-08T14:49:48.007Z,4211.5
2023-02-08T14:55:21.168Z,4204.4
2023-02-08T15:00:57.556Z,4219.8
2023-02-08T15:06:32.717Z,4213.3
2023-02-08T15:12:08.458Z,4218.3
2023-02-08T15:17:52.408Z,4220.5
2023-02-08T15:23:34.624Z,4219.5
2023-02-08T15:29:10.856Z,4225
2023-02-08T15:34:48.635Z,4198.7
2023-02-08T15:40:23.914Z,4201.1
2023-02-08T15:46:00.421Z,4213.3
2023-02-08T15:51:36.415Z,4199.6
2023-02-08T15:57:12.212Z,4197.2
2023-02-08T16:02:47.978Z,4194
2023-02-08T16:08:23.396Z,4194.2
2023-02-08T16:14:00.712Z,4184.5
2023-02-08T16:19:37.556Z,4186.2
2023-02-08T16:25:19.653Z,4184.5
2023-02-08T16:30:56.445Z,4183.1
2023-02-08T16:36:37.914Z,4179.8
2023-02-08T16:42:20.346Z,4176.4
2023-02-08T16:48:20.282Z,4172.3
2023-02-08T16:53:53.584Z,4171.9
2023-02-08T16:59:28.992Z,4168.2
2023-02-08T17:05:03.838Z,4169.9
2023-02-08T17:10:48.972Z,4169.4
2023-02-08T17:16:23.988Z,4167.9
2023-02-08T17:22:02.772Z,4165.4
2023-02-08T17:28:38.776Z,4164.7
2023-02-08T17:34:15.304Z,4161.5
2023-02-08T17:39:58.917Z,4161.2
2023-02-08T17:46:02.980Z,4161
2023-02-08T17:51:46.090Z,4159.5
2023-02-08T17:57:40.311Z,4160.5
2023-02-08T18:03:26.045Z,4160.4
2023-02-08T18:09:25.867Z,4162.2
2023-02-08T18:15:02.220Z,4161
2023-02-08T18:20:42.113Z,4162.2
2023-02-08T18:26:17.428Z,4161.4
2023-02-08T18:31:54.695Z,4162.7
2023-02-08T18:37:38.247Z,4160.9
2023-02-08T18:43:16.324Z,4159.5
2023-02-08T18:49:13.380Z,4156.7
2023-02-08T18:54:56.396Z,4161.4
2023-02-08T19:00:42.748Z,4162.7
2023-02-08T19:06:39.172Z,4156.7
2023-02-08T19:12:16.371Z,4162.4
2023-02-08T19:17:51.806Z,4157
2023-02-08T19:23:42.206Z,4156.8
2023-02-08T19:29:17.992Z,4157.7
2023-02-08T19:35:01.728Z,4158.7
2023-02-08T19:40:37.374Z,4156.2
2023-02-08T19:46:13.146Z,4157.7
2023-02-08T19:51:55.746Z,4154.2
2023-02-08T19:57:41.000Z,4156.5
2023-02-08T20:03:23.731Z,4154.2
2023-02-08T20:08:59.956Z,4158.9
2023-02-08T20:14:38.047Z,4153.2
2023-02-08T20:20:13.710Z,4154.5
2023-02-08T20:25:51.920Z,4153.7
2023-02-08T20:31:39.724Z,4154.3
2023-02-08T20:37:15.898Z,4151.5
2023-02-08T20:42:54.870Z,4148.3
2023-02-08T20:48:52.896Z,4146.8
2023-02-08T20:54:37.380Z,4149.3
2023-02-08T21:00:12.866Z,4150.1
2023-02-08T21:05:47.919Z,4151.7
2023-02-08T21:11:24.705Z,4148.3
2023-02-08T21:17:01.807Z,4150
2023-02-08T21:22:46.409Z,4147.1
2023-02-08T21:28:23.874Z,4150.6
2023-02-08T21:34:06.370Z,4148.1
2023-02-08T21:39:47.076Z,4147.5
2023-02-08T21:45:34.831Z,4147.8
2023-02-08T21:51:13.927Z,4147.1
2023-02-08T21:57:09.575Z,4145.8
2023-02-08T22:02:55.916Z,4144.6
2023-02-08T22:08:40.040Z,4142.3
2023-02-08T22:14:15.119Z,4142.9
2023-02-08T22:19:50.492Z,4141.6
2023-02-08T22:25:25.554Z,4141.8
2023-02-08T22:31:11.671Z,4144.1
2023-02-08T22:36:47.262Z,4142.6
2023-02-08T22:42:24.396Z,4139.4
2023-02-08T22:48:22.256Z,4135.6
2023-02-08T22:53:58.083Z,4136.7
2023-02-08T22:59:42.768Z,4138.6
2023-02-08T23:05:17.674Z,4137.9
2023-02-08T23:10:52.881Z,4138.8
2023-02-08T23:16:38.029Z,4135.7
2023-02-08T23:22:31.591Z,4134.7
2023-02-08T23:28:07.772Z,4133.9
2023-02-08T23:33:47.987Z,4136.4
2023-02-08T23:39:23.558Z,4134.4
2023-02-08T23:45:07.646Z,4134.9
2023-02-08T23:50:48.625Z,4135.4
2023-02-08T23:56:23.854Z,4131.9
